ENSH

Svolvær Helle Airport

Svolvær, Norway
METAR ENSH 160950Z 17018KT 9999 8000S SHRASNGS FEW006 FEW008CB BKN012 02/00 Q0996 RMK WIND 150FT 16021KT
Observed Flight Rules
Dec-16 @ 09:50 UTC (an hour ago) Marginal Visual Flight Rules
Wind Visibility Clouds Conditions
170° at 18 knots 10,000+ meters
  • Few at 600' AGL
  • Few at 800' AGL
  • Broken at 1,200' AGL
  • Rain
  • Small hail
  • Snow
Temperatures Readings
Current 2°C / 36°F
Dewpoint 0°C / 32°F
Humidity 87%
Altimeter 29.41" Hg
Pressure 996 hPa
Elevation 9
METAR ENSH 160950Z 17018KT 9999 8000S SHRASNGS FEW006 FEW008CB BKN012 02/00 Q0996 RMK WIND 150FT 16021KT
Observed Flight Rules
Dec-16 @ 09:50 UTC
(an hour ago)
MVFR
Wind Visibility
170° at 18 knots 10,000+ meters
Clouds
  • Few at 600' AGL
  • Few at 800' AGL
  • Broken at 1,200' AGL
Conditions
  • Rain
  • Small hail
  • Snow
Temperature Dewpoint
2°C / 36°F 0°C / 32°F
Humidity Altimeter Pressure
87% 29.41" Hg 996 hPa